createdAt,value
2018-10-16T00:02:23.298Z,92.900002
2018-10-16T00:07:25.481Z,93.199997
2018-10-16T00:12:27.894Z,93.400002
2018-10-16T00:17:30.139Z,92.800003
2018-10-16T00:22:33.557Z,92.400002
2018-10-16T00:27:34.763Z,92.900002
2018-10-16T00:32:37.172Z,92.800003
2018-10-16T00:37:39.305Z,93.099998
2018-10-16T00:42:41.607Z,94.199997
2018-10-16T00:47:44.032Z,93.900002
2018-10-16T00:52:46.306Z,94.599998
2018-10-16T00:57:48.528Z,94.800003
2018-10-16T01:02:50.847Z,95.5
2018-10-16T01:07:53.096Z,96.300003
2018-10-16T01:12:55.364Z,95.599998
2018-10-16T01:17:57.635Z,95.5
2018-10-16T01:22:59.899Z,95.900002
2018-10-16T01:28:02.202Z,95.800003
2018-10-16T01:33:04.823Z,97.099998
2018-10-16T01:38:08.051Z,96.300003
2018-10-16T01:43:10.552Z,96.900002
2018-10-16T01:48:11.437Z,97.400002
2018-10-16T01:53:13.713Z,97.699997
2018-10-16T01:58:16.014Z,97.5
2018-10-16T02:08:20.588Z,96.099998
2018-10-16T02:13:22.918Z,95.599998
2018-10-16T02:18:25.247Z,93.900002
2018-10-16T02:23:27.529Z,93.800003
2018-10-16T02:33:32.186Z,92.900002
2018-10-16T02:38:34.412Z,93
2018-10-16T02:43:36.667Z,92.300003
2018-10-16T02:48:40.246Z,91.599998
2018-10-16T02:53:41.250Z,91.5
2018-10-16T02:58:43.526Z,92.099998
2018-10-16T03:03:45.824Z,93.199997
2018-10-16T03:08:48.072Z,93.699997
2018-10-16T03:13:50.464Z,94.199997
2018-10-16T03:18:52.651Z,95.400002
2018-10-16T03:23:54.938Z,95.800003
2018-10-16T03:28:57.283Z,96.099998
2018-10-16T03:33:59.548Z,95.900002
2018-10-16T03:39:01.857Z,95.5
2018-10-16T03:44:04.181Z,93.900002
2018-10-16T03:49:06.517Z,93.800003
2018-10-16T03:54:08.767Z,92.599998
2018-10-16T03:59:11.104Z,92.699997
2018-10-16T04:04:13.421Z,92.699997
2018-10-16T04:09:15.775Z,94.5
2018-10-16T04:14:17.947Z,94.900002
2018-10-16T04:19:20.355Z,95
2018-10-16T04:24:22.515Z,95.699997
2018-10-16T04:29:24.919Z,95.699997
2018-10-16T04:34:27.117Z,96.900002
2018-10-16T04:39:29.513Z,97.800003
2018-10-16T04:44:31.713Z,98.400002
2018-10-16T04:49:34.045Z,97.099998
2018-10-16T04:54:36.252Z,97.5
2018-10-16T04:59:38.597Z,97.199997
2018-10-16T05:04:40.890Z,97.199997
2018-10-16T05:09:43.293Z,97.699997
2018-10-16T05:14:45.584Z,98.5
2018-10-16T05:19:47.844Z,97.900002
2018-10-16T05:24:50.066Z,98.300003
2018-10-16T05:29:52.466Z,99.099998
2018-10-16T05:34:54.715Z,98.900002
2018-10-16T05:39:56.895Z,99.5
2018-10-16T05:44:59.205Z,99.199997
2018-10-16T05:50:01.589Z,98.900002
2018-10-16T05:55:03.869Z,98.699997
2018-10-16T06:00:06.063Z,99.5
2018-10-16T06:05:08.451Z,99.300003
2018-10-16T06:10:10.835Z,99.5
2018-10-16T06:15:13.052Z,99.900002
2018-10-16T06:20:15.412Z,99.5
2018-10-16T06:25:17.759Z,99.400002
2018-10-16T06:30:20.058Z,99.699997
2018-10-16T06:35:22.133Z,99.699997
2018-10-16T06:40:24.561Z,98.699997
2018-10-16T06:45:26.790Z,92.900002
2018-10-16T06:50:29.009Z,90.199997
2018-10-16T06:55:31.317Z,91
2018-10-16T07:00:33.615Z,90.900002
2018-10-16T07:05:35.964Z,91
2018-10-16T07:10:38.191Z,90.800003
2018-10-16T07:15:40.474Z,93.599998
2018-10-16T07:20:42.835Z,92.5
2018-10-16T07:25:45.128Z,90.900002
2018-10-16T07:30:47.457Z,90.400002
2018-10-16T07:35:49.679Z,89.400002
2018-10-16T07:40:52.043Z,88.599998
2018-10-16T07:45:54.266Z,86.400002
2018-10-16T07:50:56.584Z,85.800003
2018-10-16T07:55:58.804Z,85.5
2018-10-16T08:01:01.152Z,84.599998
2018-10-16T08:06:03.475Z,83.900002
2018-10-16T08:11:05.870Z,81.800003
2018-10-16T08:16:08.038Z,79.300003
2018-10-16T08:21:10.417Z,79.699997
2018-10-16T08:26:12.625Z,78.400002
2018-10-16T08:31:14.976Z,81.699997
2018-10-16T08:36:17.347Z,78.599998
2018-10-16T08:41:19.517Z,78.599998
2018-10-16T08:46:21.801Z,77.199997
2018-10-16T08:51:24.196Z,76.699997
2018-10-16T08:56:26.361Z,74.699997
2018-10-16T09:01:28.816Z,73.300003
2018-10-16T09:06:31.051Z,73.699997
2018-10-16T09:11:33.349Z,73.199997
2018-10-16T09:16:35.634Z,73.5
2018-10-16T09:21:37.926Z,73.099998
2018-10-16T09:26:40.180Z,72.199997
2018-10-16T09:31:42.489Z,71.300003
2018-10-16T09:36:44.759Z,66.5
2018-10-16T09:41:47.005Z,68.699997
2018-10-16T09:46:49.440Z,61.599998
2018-10-16T09:51:51.614Z,60.5
2018-10-16T09:56:53.968Z,59.099998
2018-10-16T10:01:56.275Z,54.900002
2018-10-16T10:06:58.609Z,54.599998
2018-10-16T10:12:00.875Z,55.400002
2018-10-16T10:17:03.132Z,51.400002
2018-10-16T10:22:05.516Z,50.299999
2018-10-16T10:27:07.648Z,48.5
2018-10-16T10:32:09.974Z,48.299999
2018-10-16T10:37:12.358Z,51.900002
2018-10-16T10:42:15.745Z,48.099998
2018-10-16T10:47:16.861Z,46.700001
2018-10-16T10:52:19.215Z,49.200001
2018-10-16T10:57:21.486Z,48
2018-10-16T11:02:23.753Z,50.799999
2018-10-16T11:07:26.053Z,44.299999
2018-10-16T11:12:28.358Z,41.900002
2018-10-16T11:17:30.783Z,48.700001
2018-10-16T11:22:32.993Z,41
2018-10-16T11:27:35.216Z,38.5
2018-10-16T11:32:37.552Z,36.799999
2018-10-16T11:37:39.860Z,34.599998
2018-10-16T11:42:42.279Z,33.099998
2018-10-16T11:47:44.442Z,34.700001
2018-10-16T11:52:46.775Z,29.9
2018-10-16T11:57:48.990Z,32
2018-10-16T12:02:51.455Z,30.1
2018-10-16T12:07:53.754Z,29.4
2018-10-16T12:12:55.881Z,29.4
2018-10-16T12:17:58.196Z,29.9
2018-10-16T12:23:00.495Z,30.799999
2018-10-16T12:28:03.080Z,30
2018-10-16T12:33:05.187Z,31
2018-10-16T12:38:07.315Z,31
2018-10-16T12:43:13.946Z,29.1
2018-10-16T12:48:12.207Z,31.6
2018-10-16T12:53:14.372Z,32.400002
2018-10-16T12:58:16.485Z,30.700001
2018-10-16T13:03:18.781Z,31.5
2018-10-16T13:08:21.215Z,32.599998
2018-10-16T13:13:23.505Z,33
2018-10-16T13:18:25.695Z,35.5
2018-10-16T13:23:28.009Z,31.9
2018-10-16T13:28:30.339Z,32.700001
2018-10-16T13:33:32.544Z,32.200001
2018-10-16T13:38:34.859Z,32.900002
2018-10-16T13:43:37.174Z,33.900002
2018-10-16T13:48:39.499Z,33.799999
2018-10-16T13:53:41.816Z,33.5
2018-10-16T13:58:44.116Z,33.5
2018-10-16T14:03:46.327Z,33.700001
2018-10-16T14:08:48.731Z,33.799999
2018-10-16T14:13:52.132Z,34.5
2018-10-16T14:18:53.279Z,35.299999
2018-10-16T14:23:55.472Z,34.400002
2018-10-16T14:28:58.224Z,33.400002
2018-10-16T14:34:00.154Z,33.900002
2018-10-16T14:39:03.617Z,33.599998
2018-10-16T14:44:04.801Z,33
2018-10-16T14:49:07.023Z,32.799999
2018-10-16T14:54:09.340Z,33.599998
2018-10-16T14:59:11.732Z,34.200001
2018-10-16T15:04:13.971Z,35
2018-10-16T15:09:16.248Z,34.700001
2018-10-16T15:14:18.622Z,34.700001
2018-10-16T15:19:20.857Z,35.099998
2018-10-16T15:24:23.026Z,35.700001
2018-10-16T15:29:25.323Z,37.299999
2018-10-16T15:34:27.687Z,37.200001
2018-10-16T15:39:30.004Z,37.5
2018-10-16T15:44:32.318Z,38.700001
2018-10-16T15:49:35.714Z,38.5
2018-10-16T15:54:36.891Z,39.099998
2018-10-16T15:59:39.114Z,39.200001
2018-10-16T16:04:41.352Z,40.400002
2018-10-16T16:09:43.755Z,41.299999
2018-10-16T16:14:45.950Z,42.099998
2018-10-16T16:19:48.265Z,42.299999
2018-10-16T16:24:50.738Z,43.299999
2018-10-16T16:29:52.898Z,45.700001
2018-10-16T16:34:55.424Z,48.599998
2018-10-16T16:39:57.545Z,49.200001
2018-10-16T16:44:59.835Z,50.099998
2018-10-16T16:50:02.368Z,51.400002
2018-10-16T16:55:04.458Z,52.400002
2018-10-16T17:00:06.667Z,54
2018-10-16T17:05:10.286Z,54.099998
2018-10-16T17:10:11.307Z,54.900002
2018-10-16T17:15:13.629Z,56.5
2018-10-16T17:20:15.830Z,58.599998
2018-10-16T17:25:18.337Z,60.099998
2018-10-16T17:30:20.538Z,60.700001
2018-10-16T17:35:22.728Z,60
2018-10-16T17:40:25.030Z,61.200001
2018-10-16T17:45:27.309Z,62.5
2018-10-16T17:50:29.600Z,65.199997
2018-10-16T17:55:31.950Z,65.5
2018-10-16T18:00:34.543Z,66.599998
2018-10-16T18:05:36.571Z,68
2018-10-16T18:10:38.794Z,69.199997
2018-10-16T18:15:41.078Z,69.099998
2018-10-16T18:20:43.502Z,69.400002
2018-10-16T18:25:45.696Z,70.199997
2018-10-16T18:30:48.002Z,69.900002
2018-10-16T18:35:50.204Z,70.199997
2018-10-16T18:40:53.641Z,70.400002
2018-10-16T18:45:54.828Z,70.199997
2018-10-16T18:50:57.193Z,70.5
2018-10-16T18:55:59.446Z,70.900002
2018-10-16T19:01:01.801Z,70.699997
2018-10-16T19:06:04.020Z,70.199997
2018-10-16T19:11:06.293Z,70.900002
2018-10-16T19:16:08.637Z,70.900002
2018-10-16T19:21:10.931Z,70.400002
2018-10-16T19:26:13.207Z,69
2018-10-16T19:31:15.470Z,68.699997
2018-10-16T19:36:17.812Z,68.599998
2018-10-16T19:41:20.129Z,68.400002
2018-10-16T19:46:22.343Z,68.400002
2018-10-16T19:51:24.638Z,68.5
2018-10-16T19:56:26.915Z,69.099998
2018-10-16T20:01:29.289Z,69.599998
2018-10-16T20:06:31.481Z,70.5
2018-10-16T20:11:33.795Z,71.300003
2018-10-16T20:16:36.137Z,72
2018-10-16T20:21:38.542Z,72.900002
2018-10-16T20:26:40.687Z,73.599998
2018-10-16T20:31:42.986Z,74.300003
2018-10-16T20:36:45.268Z,74
2018-10-16T20:41:49.114Z,73.199997
2018-10-16T20:46:50.974Z,72.5
2018-10-16T20:51:52.191Z,71.5
2018-10-16T20:56:54.557Z,70.400002
2018-10-16T21:01:56.771Z,70
2018-10-16T21:06:59.174Z,70.300003
2018-10-16T21:12:01.336Z,71.099998
2018-10-16T21:17:03.700Z,72.199997
2018-10-16T21:22:05.939Z,73.599998
2018-10-16T21:27:08.221Z,72.5
2018-10-16T21:32:10.509Z,71.699997
2018-10-16T21:37:12.909Z,71.199997
2018-10-16T21:42:15.130Z,71.599998
2018-10-16T21:47:17.511Z,71.400002
2018-10-16T21:52:19.923Z,71.400002
2018-10-16T21:57:21.987Z,72.400002
2018-10-16T22:02:24.327Z,72.5
2018-10-16T22:07:26.569Z,73.300003
2018-10-16T22:12:28.901Z,74.099998
2018-10-16T22:17:33.048Z,73.599998
2018-10-16T22:22:33.514Z,73.599998
2018-10-16T22:27:35.789Z,73.800003
2018-10-16T22:32:38.034Z,74.5
2018-10-16T22:37:40.334Z,75.699997
2018-10-16T22:42:42.630Z,76.199997
2018-10-16T22:47:44.993Z,76.900002
2018-10-16T22:52:47.310Z,77.300003
2018-10-16T22:57:49.661Z,78.900002
2018-10-16T23:02:51.835Z,80.400002
2018-10-16T23:07:54.135Z,81.199997
2018-10-16T23:12:56.414Z,81.900002
2018-10-16T23:17:58.749Z,82.599998
2018-10-16T23:23:01.092Z,83
2018-10-16T23:28:03.305Z,83.099998
2018-10-16T23:33:05.625Z,83.099998
2018-10-16T23:38:07.850Z,83.199997
2018-10-16T23:43:10.385Z,83.900002
2018-10-16T23:48:14.035Z,84.699997
2018-10-16T23:53:14.916Z,84.199997
2018-10-16T23:58:17.126Z,82.699997
